South Bend Regional Airport
KSBN : now visible

Airfield :











YOU CAN JOIN US ON...

 
LOGIN :

Register | Disclaimer

   EN    FR    IT 

 









Legend :    VFR   Marginal VFR   IFR   Intensive IFR   Very Intensive IFR
Visi :
Ceiling :
>= 8 km
>= 3000ft
5 to 8 km
1000 to 3000 ft
1500m to 5 km
500 to 1000 ft
800 to 1500m
200 to 500 ft
< 800m
< 200 ft
Symbols :   Thunderstorms  Fog  Heavy snow  Heavy precipitations  Wind > 20 kt






- Airport Elevation : 799 ft
- IATA code : SBN


KSBN - South Bend Regional

CURRENT METAR :
  • 171354Z 14005KT 8SM CLR M03/M05 A3010 RMK AO2 SLP204 T10281050

EXPIRED METARs :
  • 171254Z 10004KT 6SM BR CLR M04/M06 A3011 RMK AO2 SLP208 T10391061
  • 171154Z 11004KT 7SM CLR M04/M06 A3013 RMK AO2 SLP214 T10441061 11022 21044 57017

TAF KSBN
Valid from the 17 at 12:00 until the 18 at 12:00 UTC


171136Z 1712/1812 10004KT P6SM BKN200
FM180000 16005KT P6SM VCSH OVC060
FM180900 00000KT P6SM OVC025



MET'MAP, your aeronautical weather chart ! - Copyright ORBIFLY December 2007 - Disclaimer

ORBIFLY MET'MAP TEAM :

Programming & Development : Alexandra Zaïnal
Concept & Development : Baudouin d'Aumeries
Co-Development & Prog : Marc-Olivier Méhu
Technical & hardware support : Manuel Goepfert

Contact : metmap@orbifly.com




SOURCES & CREDITS :

   NOAA       Earth
Advisory